sensor_id;sensor_type;location;lat;lon;timestamp;P1;durP1;ratioP1;P2;durP2;ratioP2
8219;SDS011;4151;51.110;7.020;2023-07-31T00:00:37;14.10;;;4.47;;
8219;SDS011;4151;51.110;7.020;2023-07-31T00:03:03;11.30;;;4.43;;
8219;SDS011;4151;51.110;7.020;2023-07-31T00:05:28;11.20;;;4.57;;
8219;SDS011;4151;51.110;7.020;2023-07-31T00:07:54;10.67;;;4.50;;
8219;SDS011;4151;51.110;7.020;2023-07-31T00:10:20;16.53;;;5.03;;
8219;SDS011;4151;51.110;7.020;2023-07-31T00:12:45;9.03;;;4.40;;
8219;SDS011;4151;51.110;7.020;2023-07-31T00:15:11;16.83;;;5.63;;
8219;SDS011;4151;51.110;7.020;2023-07-31T00:17:38;18.40;;;5.43;;
8219;SDS011;4151;51.110;7.020;2023-07-31T00:20:04;9.10;;;4.30;;
8219;SDS011;4151;51.110;7.020;2023-07-31T00:22:29;14.47;;;5.00;;
8219;SDS011;4151;51.110;7.020;2023-07-31T00:24:55;16.73;;;4.60;;
8219;SDS011;4151;51.110;7.020;2023-07-31T00:27:22;6.27;;;4.30;;
8219;SDS011;4151;51.110;7.020;2023-07-31T00:29:47;12.00;;;4.70;;
8219;SDS011;4151;51.110;7.020;2023-07-31T00:32:13;15.50;;;5.43;;
8219;SDS011;4151;51.110;7.020;2023-07-31T00:34:38;16.53;;;5.37;;
8219;SDS011;4151;51.110;7.020;2023-07-31T00:37:04;15.43;;;5.13;;
8219;SDS011;4151;51.110;7.020;2023-07-31T00:39:30;13.60;;;4.40;;
8219;SDS011;4151;51.110;7.020;2023-07-31T00:41:56;10.93;;;4.60;;
8219;SDS011;4151;51.110;7.020;2023-07-31T00:44:21;8.83;;;4.17;;
8219;SDS011;4151;51.110;7.020;2023-07-31T00:46:47;10.33;;;4.13;;
8219;SDS011;4151;51.110;7.020;2023-07-31T00:49:13;14.57;;;4.33;;
8219;SDS011;4151;51.110;7.020;2023-07-31T00:51:38;8.80;;;5.23;;
8219;SDS011;4151;51.110;7.020;2023-07-31T00:54:04;14.37;;;4.27;;
8219;SDS011;4151;51.110;7.020;2023-07-31T00:56:31;12.13;;;4.73;;
8219;SDS011;4151;51.110;7.020;2023-07-31T00:58:57;9.63;;;4.30;;
8219;SDS011;4151;51.110;7.020;2023-07-31T01:01:23;13.27;;;3.87;;
8219;SDS011;4151;51.110;7.020;2023-07-31T01:03:49;9.67;;;4.70;;
8219;SDS011;4151;51.110;7.020;2023-07-31T01:06:34;18.77;;;4.53;;
8219;SDS011;4151;51.110;7.020;2023-07-31T01:09:04;14.60;;;4.47;;
8219;SDS011;4151;51.110;7.020;2023-07-31T01:11:33;13.17;;;4.60;;
8219;SDS011;4151;51.110;7.020;2023-07-31T01:14:02;11.33;;;4.27;;
8219;SDS011;4151;51.110;7.020;2023-07-31T01:16:28;15.87;;;4.23;;
8219;SDS011;4151;51.110;7.020;2023-07-31T01:18:54;6.80;;;3.43;;
8219;SDS011;4151;51.110;7.020;2023-07-31T01:21:29;16.27;;;5.40;;
8219;SDS011;4151;51.110;7.020;2023-07-31T01:26:56;11.80;;;4.23;;
8219;SDS011;4151;51.110;7.020;2023-07-31T01:32:11;13.27;;;3.60;;
8219;SDS011;4151;51.110;7.020;2023-07-31T01:34:38;17.00;;;3.90;;
8219;SDS011;4151;51.110;7.020;2023-07-31T01:37:06;6.30;;;3.70;;
8219;SDS011;4151;51.110;7.020;2023-07-31T01:39:31;8.10;;;3.60;;
8219;SDS011;4151;51.110;7.020;2023-07-31T01:41:57;11.03;;;4.63;;
8219;SDS011;4151;51.110;7.020;2023-07-31T01:44:22;10.23;;;3.87;;
8219;SDS011;4151;51.110;7.020;2023-07-31T01:46:48;7.10;;;3.40;;
8219;SDS011;4151;51.110;7.020;2023-07-31T01:49:13;9.07;;;3.73;;
8219;SDS011;4151;51.110;7.020;2023-07-31T01:51:39;9.43;;;4.20;;
8219;SDS011;4151;51.110;7.020;2023-07-31T01:54:05;10.97;;;3.40;;
8219;SDS011;4151;51.110;7.020;2023-07-31T01:56:30;13.87;;;4.10;;
8219;SDS011;4151;51.110;7.020;2023-07-31T01:58:56;13.80;;;3.70;;
8219;SDS011;4151;51.110;7.020;2023-07-31T02:01:21;13.20;;;4.17;;
8219;SDS011;4151;51.110;7.020;2023-07-31T02:03:47;15.33;;;3.80;;
8219;SDS011;4151;51.110;7.020;2023-07-31T02:06:12;12.67;;;4.03;;
8219;SDS011;4151;51.110;7.020;2023-07-31T02:08:38;10.50;;;3.10;;
8219;SDS011;4151;51.110;7.020;2023-07-31T02:11:03;9.50;;;3.80;;
8219;SDS011;4151;51.110;7.020;2023-07-31T02:13:29;11.30;;;3.40;;
8219;SDS011;4151;51.110;7.020;2023-07-31T02:15:55;12.30;;;3.90;;
8219;SDS011;4151;51.110;7.020;2023-07-31T02:18:20;14.17;;;4.47;;
8219;SDS011;4151;51.110;7.020;2023-07-31T02:20:50;11.73;;;4.03;;
8219;SDS011;4151;51.110;7.020;2023-07-31T02:23:16;10.80;;;3.60;;
8219;SDS011;4151;51.110;7.020;2023-07-31T02:25:45;13.43;;;4.50;;
8219;SDS011;4151;51.110;7.020;2023-07-31T02:28:11;11.77;;;4.17;;
8219;SDS011;4151;51.110;7.020;2023-07-31T02:30:37;10.40;;;3.73;;
8219;SDS011;4151;51.110;7.020;2023-07-31T02:33:03;29.27;;;4.30;;
8219;SDS011;4151;51.110;7.020;2023-07-31T02:35:29;20.03;;;4.20;;
8219;SDS011;4151;51.110;7.020;2023-07-31T02:37:55;14.80;;;4.93;;
8219;SDS011;4151;51.110;7.020;2023-07-31T02:40:21;13.30;;;4.10;;
8219;SDS011;4151;51.110;7.020;2023-07-31T02:42:46;9.90;;;3.60;;
8219;SDS011;4151;51.110;7.020;2023-07-31T02:45:12;11.20;;;4.03;;
8219;SDS011;4151;51.110;7.020;2023-07-31T02:47:38;10.90;;;4.00;;
8219;SDS011;4151;51.110;7.020;2023-07-31T02:50:03;11.20;;;4.20;;
8219;SDS011;4151;51.110;7.020;2023-07-31T02:52:29;10.33;;;3.93;;
8219;SDS011;4151;51.110;7.020;2023-07-31T02:54:55;9.60;;;3.93;;
8219;SDS011;4151;51.110;7.020;2023-07-31T02:57:20;13.13;;;4.00;;
8219;SDS011;4151;51.110;7.020;2023-07-31T02:59:46;11.40;;;3.63;;
8219;SDS011;4151;51.110;7.020;2023-07-31T03:02:12;9.40;;;3.77;;
8219;SDS011;4151;51.110;7.020;2023-07-31T03:04:38;8.43;;;4.20;;
8219;SDS011;4151;51.110;7.020;2023-07-31T03:07:03;15.70;;;3.80;;
8219;SDS011;4151;51.110;7.020;2023-07-31T03:09:29;11.43;;;4.57;;
8219;SDS011;4151;51.110;7.020;2023-07-31T03:11:55;8.10;;;3.57;;
8219;SDS011;4151;51.110;7.020;2023-07-31T03:14:20;20.87;;;5.00;;
8219;SDS011;4151;51.110;7.020;2023-07-31T03:16:46;10.30;;;3.73;;
8219;SDS011;4151;51.110;7.020;2023-07-31T03:19:11;18.00;;;4.90;;
8219;SDS011;4151;51.110;7.020;2023-07-31T03:21:37;14.37;;;4.07;;
8219;SDS011;4151;51.110;7.020;2023-07-31T03:24:03;8.73;;;3.50;;
8219;SDS011;4151;51.110;7.020;2023-07-31T03:26:30;11.27;;;4.33;;
8219;SDS011;4151;51.110;7.020;2023-07-31T03:28:56;10.93;;;3.40;;
8219;SDS011;4151;51.110;7.020;2023-07-31T03:31:22;16.73;;;4.10;;
8219;SDS011;4151;51.110;7.020;2023-07-31T03:33:47;10.30;;;3.97;;
8219;SDS011;4151;51.110;7.020;2023-07-31T03:36:13;17.17;;;4.00;;
8219;SDS011;4151;51.110;7.020;2023-07-31T03:38:38;13.17;;;4.00;;
8219;SDS011;4151;51.110;7.020;2023-07-31T03:41:04;19.03;;;4.83;;
8219;SDS011;4151;51.110;7.020;2023-07-31T03:43:31;8.23;;;3.53;;
8219;SDS011;4151;51.110;7.020;2023-07-31T03:45:58;12.77;;;4.60;;
8219;SDS011;4151;51.110;7.020;2023-07-31T03:48:24;11.37;;;3.93;;
8219;SDS011;4151;51.110;7.020;2023-07-31T03:50:50;14.87;;;4.50;;
8219;SDS011;4151;51.110;7.020;2023-07-31T03:53:16;9.10;;;4.40;;
8219;SDS011;4151;51.110;7.020;2023-07-31T03:55:41;13.50;;;4.80;;
8219;SDS011;4151;51.110;7.020;2023-07-31T03:58:07;10.10;;;3.70;;
8219;SDS011;4151;51.110;7.020;2023-07-31T04:00:32;10.60;;;4.33;;
8219;SDS011;4151;51.110;7.020;2023-07-31T04:02:58;16.30;;;5.33;;
8219;SDS011;4151;51.110;7.020;2023-07-31T04:05:23;18.57;;;5.57;;
8219;SDS011;4151;51.110;7.020;2023-07-31T04:07:49;11.83;;;4.50;;
8219;SDS011;4151;51.110;7.020;2023-07-31T04:10:15;11.70;;;5.00;;
8219;SDS011;4151;51.110;7.020;2023-07-31T04:12:40;13.83;;;4.70;;
8219;SDS011;4151;51.110;7.020;2023-07-31T04:15:06;12.10;;;4.33;;
8219;SDS011;4151;51.110;7.020;2023-07-31T04:17:32;12.53;;;4.30;;
8219;SDS011;4151;51.110;7.020;2023-07-31T04:19:57;9.63;;;4.83;;
8219;SDS011;4151;51.110;7.020;2023-07-31T04:22:23;10.20;;;4.03;;
8219;SDS011;4151;51.110;7.020;2023-07-31T04:24:48;12.70;;;4.67;;
8219;SDS011;4151;51.110;7.020;2023-07-31T04:27:14;14.50;;;4.57;;
8219;SDS011;4151;51.110;7.020;2023-07-31T04:29:39;20.30;;;4.27;;
8219;SDS011;4151;51.110;7.020;2023-07-31T04:32:07;12.87;;;4.73;;
8219;SDS011;4151;51.110;7.020;2023-07-31T04:34:33;14.60;;;5.57;;
8219;SDS011;4151;51.110;7.020;2023-07-31T04:36:58;28.00;;;4.50;;
8219;SDS011;4151;51.110;7.020;2023-07-31T04:39:24;16.83;;;5.00;;
8219;SDS011;4151;51.110;7.020;2023-07-31T04:41:49;21.60;;;5.20;;
8219;SDS011;4151;51.110;7.020;2023-07-31T04:44:15;10.57;;;4.73;;
8219;SDS011;4151;51.110;7.020;2023-07-31T04:46:40;12.43;;;5.07;;
8219;SDS011;4151;51.110;7.020;2023-07-31T04:49:06;11.53;;;4.90;;
8219;SDS011;4151;51.110;7.020;2023-07-31T04:51:31;13.20;;;4.90;;
8219;SDS011;4151;51.110;7.020;2023-07-31T04:53:57;13.80;;;5.13;;
8219;SDS011;4151;51.110;7.020;2023-07-31T04:56:22;17.07;;;5.33;;
8219;SDS011;4151;51.110;7.020;2023-07-31T04:58:48;15.83;;;5.73;;
8219;SDS011;4151;51.110;7.020;2023-07-31T05:01:13;18.07;;;5.90;;
8219;SDS011;4151;51.110;7.020;2023-07-31T05:03:39;10.87;;;5.10;;
8219;SDS011;4151;51.110;7.020;2023-07-31T05:06:05;17.03;;;4.33;;
8219;SDS011;4151;51.110;7.020;2023-07-31T05:08:30;12.03;;;5.67;;
8219;SDS011;4151;51.110;7.020;2023-07-31T05:10:56;10.80;;;5.00;;
8219;SDS011;4151;51.110;7.020;2023-07-31T05:13:21;14.43;;;5.47;;
8219;SDS011;4151;51.110;7.020;2023-07-31T05:15:47;12.13;;;4.80;;
8219;SDS011;4151;51.110;7.020;2023-07-31T05:18:14;7.83;;;4.47;;
8219;SDS011;4151;51.110;7.020;2023-07-31T05:20:40;14.93;;;5.90;;
8219;SDS011;4151;51.110;7.020;2023-07-31T05:23:06;9.90;;;4.90;;
8219;SDS011;4151;51.110;7.020;2023-07-31T05:25:31;11.60;;;4.90;;
8219;SDS011;4151;51.110;7.020;2023-07-31T05:27:57;16.63;;;5.77;;
8219;SDS011;4151;51.110;7.020;2023-07-31T05:30:23;11.00;;;4.80;;
8219;SDS011;4151;51.110;7.020;2023-07-31T05:32:48;14.50;;;4.87;;
8219;SDS011;4151;51.110;7.020;2023-07-31T05:35:14;10.00;;;5.43;;
8219;SDS011;4151;51.110;7.020;2023-07-31T05:37:40;10.73;;;4.97;;
8219;SDS011;4151;51.110;7.020;2023-07-31T05:40:05;12.93;;;4.30;;
8219;SDS011;4151;51.110;7.020;2023-07-31T05:42:31;11.50;;;4.63;;
8219;SDS011;4151;51.110;7.020;2023-07-31T05:44:57;14.00;;;4.40;;
8219;SDS011;4151;51.110;7.020;2023-07-31T05:47:23;13.90;;;5.37;;
8219;SDS011;4151;51.110;7.020;2023-07-31T05:49:48;9.47;;;4.87;;
8219;SDS011;4151;51.110;7.020;2023-07-31T05:52:16;6.80;;;4.40;;
8219;SDS011;4151;51.110;7.020;2023-07-31T05:54:42;16.70;;;5.13;;
8219;SDS011;4151;51.110;7.020;2023-07-31T05:57:07;7.93;;;4.37;;
8219;SDS011;4151;51.110;7.020;2023-07-31T05:59:33;10.80;;;4.10;;
8219;SDS011;4151;51.110;7.020;2023-07-31T06:01:59;11.73;;;4.73;;
8219;SDS011;4151;51.110;7.020;2023-07-31T06:04:24;15.53;;;4.87;;
8219;SDS011;4151;51.110;7.020;2023-07-31T06:06:50;8.70;;;4.17;;
8219;SDS011;4151;51.110;7.020;2023-07-31T06:09:16;14.03;;;4.90;;
8219;SDS011;4151;51.110;7.020;2023-07-31T06:11:42;11.00;;;4.53;;
8219;SDS011;4151;51.110;7.020;2023-07-31T06:14:07;10.30;;;4.93;;
8219;SDS011;4151;51.110;7.020;2023-07-31T06:16:33;13.10;;;5.03;;
8219;SDS011;4151;51.110;7.020;2023-07-31T06:18:58;13.77;;;5.17;;
8219;SDS011;4151;51.110;7.020;2023-07-31T06:21:24;16.00;;;5.73;;
8219;SDS011;4151;51.110;7.020;2023-07-31T06:23:49;11.30;;;5.30;;
8219;SDS011;4151;51.110;7.020;2023-07-31T06:26:15;16.90;;;6.33;;
8219;SDS011;4151;51.110;7.020;2023-07-31T06:28:41;11.10;;;5.60;;
8219;SDS011;4151;51.110;7.020;2023-07-31T06:31:07;12.50;;;6.37;;
8219;SDS011;4151;51.110;7.020;2023-07-31T06:33:32;9.90;;;5.57;;
8219;SDS011;4151;51.110;7.020;2023-07-31T06:35:58;10.80;;;5.47;;
8219;SDS011;4151;51.110;7.020;2023-07-31T06:38:26;12.27;;;5.67;;
8219;SDS011;4151;51.110;7.020;2023-07-31T06:40:52;15.77;;;5.70;;
8219;SDS011;4151;51.110;7.020;2023-07-31T06:43:18;12.10;;;5.30;;
8219;SDS011;4151;51.110;7.020;2023-07-31T06:45:43;14.77;;;6.30;;
8219;SDS011;4151;51.110;7.020;2023-07-31T06:48:09;20.50;;;7.30;;
8219;SDS011;4151;51.110;7.020;2023-07-31T06:50:35;12.00;;;6.03;;
8219;SDS011;4151;51.110;7.020;2023-07-31T06:53:00;15.17;;;5.50;;
8219;SDS011;4151;51.110;7.020;2023-07-31T06:55:27;17.87;;;6.27;;
8219;SDS011;4151;51.110;7.020;2023-07-31T06:57:53;13.33;;;6.20;;
8219;SDS011;4151;51.110;7.020;2023-07-31T07:00:20;9.40;;;5.33;;
8219;SDS011;4151;51.110;7.020;2023-07-31T07:02:47;10.00;;;5.60;;
8219;SDS011;4151;51.110;7.020;2023-07-31T07:05:13;14.97;;;6.13;;
8219;SDS011;4151;51.110;7.020;2023-07-31T07:07:39;14.57;;;5.80;;
8219;SDS011;4151;51.110;7.020;2023-07-31T07:10:05;10.67;;;5.30;;
8219;SDS011;4151;51.110;7.020;2023-07-31T07:12:31;11.13;;;4.93;;
8219;SDS011;4151;51.110;7.020;2023-07-31T07:14:57;11.17;;;5.40;;
8219;SDS011;4151;51.110;7.020;2023-07-31T07:17:23;13.33;;;4.97;;
8219;SDS011;4151;51.110;7.020;2023-07-31T07:19:49;10.00;;;4.40;;
8219;SDS011;4151;51.110;7.020;2023-07-31T07:22:15;12.00;;;4.37;;
8219;SDS011;4151;51.110;7.020;2023-07-31T07:24:41;15.30;;;6.13;;
8219;SDS011;4151;51.110;7.020;2023-07-31T07:27:06;15.20;;;5.20;;
8219;SDS011;4151;51.110;7.020;2023-07-31T07:29:34;9.70;;;4.40;;
8219;SDS011;4151;51.110;7.020;2023-07-31T07:31:59;9.37;;;5.20;;
8219;SDS011;4151;51.110;7.020;2023-07-31T07:34:26;9.60;;;5.10;;
8219;SDS011;4151;51.110;7.020;2023-07-31T07:36:52;13.73;;;5.93;;
8219;SDS011;4151;51.110;7.020;2023-07-31T07:39:17;11.07;;;4.93;;
8219;SDS011;4151;51.110;7.020;2023-07-31T07:41:43;21.00;;;5.33;;
8219;SDS011;4151;51.110;7.020;2023-07-31T07:44:09;12.53;;;5.00;;
8219;SDS011;4151;51.110;7.020;2023-07-31T07:46:34;10.57;;;5.00;;
8219;SDS011;4151;51.110;7.020;2023-07-31T07:49:00;10.83;;;4.40;;
8219;SDS011;4151;51.110;7.020;2023-07-31T07:51:25;11.27;;;5.70;;
8219;SDS011;4151;51.110;7.020;2023-07-31T07:53:51;13.63;;;6.03;;
8219;SDS011;4151;51.110;7.020;2023-07-31T07:56:16;13.60;;;5.80;;
8219;SDS011;4151;51.110;7.020;2023-07-31T07:58:42;10.90;;;5.73;;
8219;SDS011;4151;51.110;7.020;2023-07-31T08:01:08;11.80;;;5.00;;
8219;SDS011;4151;51.110;7.020;2023-07-31T08:03:33;13.90;;;5.30;;
8219;SDS011;4151;51.110;7.020;2023-07-31T08:05:59;11.40;;;5.03;;
8219;SDS011;4151;51.110;7.020;2023-07-31T08:08:26;18.43;;;5.40;;
8219;SDS011;4151;51.110;7.020;2023-07-31T08:10:53;18.70;;;5.57;;
8219;SDS011;4151;51.110;7.020;2023-07-31T08:13:19;12.83;;;5.97;;
8219;SDS011;4151;51.110;7.020;2023-07-31T08:15:44;16.83;;;5.97;;
8219;SDS011;4151;51.110;7.020;2023-07-31T08:18:10;9.37;;;5.73;;
8219;SDS011;4151;51.110;7.020;2023-07-31T08:20:36;27.23;;;5.70;;
8219;SDS011;4151;51.110;7.020;2023-07-31T08:23:02;11.60;;;6.53;;
8219;SDS011;4151;51.110;7.020;2023-07-31T08:25:28;17.53;;;7.30;;
8219;SDS011;4151;51.110;7.020;2023-07-31T08:27:54;16.60;;;5.57;;
8219;SDS011;4151;51.110;7.020;2023-07-31T08:30:20;21.40;;;5.87;;
8219;SDS011;4151;51.110;7.020;2023-07-31T08:32:46;11.33;;;5.20;;
8219;SDS011;4151;51.110;7.020;2023-07-31T08:35:11;14.27;;;5.23;;
8219;SDS011;4151;51.110;7.020;2023-07-31T08:37:37;10.50;;;3.93;;
8219;SDS011;4151;51.110;7.020;2023-07-31T08:40:03;12.40;;;4.93;;
8219;SDS011;4151;51.110;7.020;2023-07-31T08:42:30;9.87;;;4.57;;
8219;SDS011;4151;51.110;7.020;2023-07-31T08:44:56;11.30;;;4.67;;
8219;SDS011;4151;51.110;7.020;2023-07-31T08:47:22;12.90;;;5.00;;
8219;SDS011;4151;51.110;7.020;2023-07-31T08:49:49;10.47;;;5.30;;
8219;SDS011;4151;51.110;7.020;2023-07-31T08:52:15;13.33;;;5.03;;
8219;SDS011;4151;51.110;7.020;2023-07-31T08:54:41;11.80;;;4.47;;
8219;SDS011;4151;51.110;7.020;2023-07-31T08:57:06;9.33;;;4.63;;
8219;SDS011;4151;51.110;7.020;2023-07-31T08:59:33;14.03;;;5.00;;
8219;SDS011;4151;51.110;7.020;2023-07-31T09:02:02;16.73;;;4.90;;
8219;SDS011;4151;51.110;7.020;2023-07-31T09:04:31;13.57;;;4.60;;
8219;SDS011;4151;51.110;7.020;2023-07-31T09:06:59;9.37;;;4.23;;
8219;SDS011;4151;51.110;7.020;2023-07-31T09:09:28;8.07;;;4.40;;
8219;SDS011;4151;51.110;7.020;2023-07-31T09:11:54;8.73;;;3.57;;
8219;SDS011;4151;51.110;7.020;2023-07-31T09:14:20;5.40;;;3.23;;
8219;SDS011;4151;51.110;7.020;2023-07-31T09:16:56;7.03;;;3.50;;
8219;SDS011;4151;51.110;7.020;2023-07-31T09:21:52;15.00;;;4.17;;
8219;SDS011;4151;51.110;7.020;2023-07-31T09:24:51;9.37;;;4.00;;
8219;SDS011;4151;51.110;7.020;2023-07-31T09:27:10;10.97;;;4.60;;
8219;SDS011;4151;51.110;7.020;2023-07-31T09:29:35;10.27;;;4.10;;
8219;SDS011;4151;51.110;7.020;2023-07-31T09:32:01;5.80;;;3.13;;
8219;SDS011;4151;51.110;7.020;2023-07-31T09:34:30;6.73;;;3.10;;
8219;SDS011;4151;51.110;7.020;2023-07-31T09:37:05;12.17;;;3.70;;
8219;SDS011;4151;51.110;7.020;2023-07-31T09:39:31;6.70;;;3.93;;
8219;SDS011;4151;51.110;7.020;2023-07-31T09:41:57;8.90;;;3.60;;
8219;SDS011;4151;51.110;7.020;2023-07-31T09:44:38;8.03;;;3.70;;
8219;SDS011;4151;51.110;7.020;2023-07-31T09:47:06;6.33;;;3.17;;
8219;SDS011;4151;51.110;7.020;2023-07-31T09:49:45;11.73;;;3.97;;
8219;SDS011;4151;51.110;7.020;2023-07-31T09:52:11;6.73;;;3.67;;
8219;SDS011;4151;51.110;7.020;2023-07-31T09:54:38;10.20;;;3.27;;
8219;SDS011;4151;51.110;7.020;2023-07-31T09:57:04;8.33;;;3.53;;
8219;SDS011;4151;51.110;7.020;2023-07-31T09:59:30;9.93;;;3.80;;
8219;SDS011;4151;51.110;7.020;2023-07-31T10:01:55;8.47;;;3.57;;
8219;SDS011;4151;51.110;7.020;2023-07-31T10:04:22;7.33;;;3.20;;
8219;SDS011;4151;51.110;7.020;2023-07-31T10:06:52;6.33;;;3.17;;
8219;SDS011;4151;51.110;7.020;2023-07-31T10:09:19;8.43;;;3.30;;
8219;SDS011;4151;51.110;7.020;2023-07-31T10:11:56;11.50;;;3.03;;
8219;SDS011;4151;51.110;7.020;2023-07-31T10:14:25;13.60;;;3.80;;
8219;SDS011;4151;51.110;7.020;2023-07-31T10:16:52;6.93;;;3.40;;
8219;SDS011;4151;51.110;7.020;2023-07-31T10:19:18;9.73;;;4.13;;
8219;SDS011;4151;51.110;7.020;2023-07-31T10:21:45;14.07;;;3.50;;
8219;SDS011;4151;51.110;7.020;2023-07-31T10:24:13;9.10;;;3.90;;
8219;SDS011;4151;51.110;7.020;2023-07-31T10:26:40;9.30;;;4.27;;
8219;SDS011;4151;51.110;7.020;2023-07-31T10:29:10;12.20;;;3.27;;
8219;SDS011;4151;51.110;7.020;2023-07-31T10:31:36;8.23;;;3.80;;
8219;SDS011;4151;51.110;7.020;2023-07-31T10:34:03;9.60;;;4.47;;
8219;SDS011;4151;51.110;7.020;2023-07-31T10:36:28;8.60;;;4.20;;
8219;SDS011;4151;51.110;7.020;2023-07-31T10:38:55;10.07;;;3.93;;
8219;SDS011;4151;51.110;7.020;2023-07-31T10:41:28;12.60;;;4.53;;
8219;SDS011;4151;51.110;7.020;2023-07-31T10:44:00;7.87;;;3.70;;
8219;SDS011;4151;51.110;7.020;2023-07-31T10:46:27;9.40;;;4.10;;
8219;SDS011;4151;51.110;7.020;2023-07-31T10:48:58;7.00;;;4.00;;
8219;SDS011;4151;51.110;7.020;2023-07-31T10:51:26;7.27;;;4.13;;
8219;SDS011;4151;51.110;7.020;2023-07-31T10:54:15;7.50;;;4.20;;
8219;SDS011;4151;51.110;7.020;2023-07-31T10:56:46;8.10;;;3.97;;
8219;SDS011;4151;51.110;7.020;2023-07-31T10:59:15;4.40;;;3.40;;
8219;SDS011;4151;51.110;7.020;2023-07-31T11:01:52;7.57;;;3.37;;
8219;SDS011;4151;51.110;7.020;2023-07-31T11:04:23;4.97;;;3.00;;
8219;SDS011;4151;51.110;7.020;2023-07-31T11:06:57;8.10;;;3.67;;
8219;SDS011;4151;51.110;7.020;2023-07-31T11:09:24;15.97;;;3.50;;
8219;SDS011;4151;51.110;7.020;2023-07-31T11:11:54;8.60;;;3.47;;
8219;SDS011;4151;51.110;7.020;2023-07-31T11:14:20;7.60;;;3.07;;
8219;SDS011;4151;51.110;7.020;2023-07-31T11:16:46;5.90;;;2.83;;
8219;SDS011;4151;51.110;7.020;2023-07-31T11:19:20;6.13;;;2.90;;
8219;SDS011;4151;51.110;7.020;2023-07-31T11:21:47;4.67;;;2.93;;
8219;SDS011;4151;51.110;7.020;2023-07-31T11:24:13;4.30;;;2.23;;
8219;SDS011;4151;51.110;7.020;2023-07-31T11:26:38;5.43;;;2.97;;
8219;SDS011;4151;51.110;7.020;2023-07-31T11:29:12;3.07;;;2.47;;
8219;SDS011;4151;51.110;7.020;2023-07-31T11:31:42;3.13;;;1.70;;
8219;SDS011;4151;51.110;7.020;2023-07-31T11:34:08;4.20;;;2.00;;
8219;SDS011;4151;51.110;7.020;2023-07-31T11:36:33;4.10;;;1.97;;
8219;SDS011;4151;51.110;7.020;2023-07-31T11:39:05;2.40;;;1.60;;
8219;SDS011;4151;51.110;7.020;2023-07-31T11:41:32;2.53;;;1.70;;
8219;SDS011;4151;51.110;7.020;2023-07-31T11:44:01;2.67;;;1.30;;
8219;SDS011;4151;51.110;7.020;2023-07-31T11:46:27;1.63;;;1.10;;
8219;SDS011;4151;51.110;7.020;2023-07-31T11:48:58;4.23;;;1.80;;
8219;SDS011;4151;51.110;7.020;2023-07-31T11:51:25;4.03;;;1.47;;
8219;SDS011;4151;51.110;7.020;2023-07-31T11:53:58;1.97;;;1.43;;
8219;SDS011;4151;51.110;7.020;2023-07-31T11:56:26;1.77;;;1.30;;
8219;SDS011;4151;51.110;7.020;2023-07-31T11:58:53;1.80;;;1.20;;
8219;SDS011;4151;51.110;7.020;2023-07-31T12:01:23;1.23;;;0.90;;
8219;SDS011;4151;51.110;7.020;2023-07-31T12:03:49;2.40;;;1.13;;
8219;SDS011;4151;51.110;7.020;2023-07-31T12:06:15;2.60;;;1.10;;
8219;SDS011;4151;51.110;7.020;2023-07-31T12:08:41;1.37;;;1.07;;
8219;SDS011;4151;51.110;7.020;2023-07-31T12:11:08;2.60;;;1.50;;
8219;SDS011;4151;51.110;7.020;2023-07-31T12:13:34;1.30;;;1.10;;
8219;SDS011;4151;51.110;7.020;2023-07-31T12:16:00;2.23;;;1.10;;
8219;SDS011;4151;51.110;7.020;2023-07-31T12:18:29;7.43;;;1.30;;
8219;SDS011;4151;51.110;7.020;2023-07-31T12:20:59;1.73;;;1.20;;
8219;SDS011;4151;51.110;7.020;2023-07-31T12:23:26;2.83;;;1.40;;
8219;SDS011;4151;51.110;7.020;2023-07-31T12:26:09;3.20;;;1.40;;
8219;SDS011;4151;51.110;7.020;2023-07-31T12:28:46;3.37;;;1.63;;
8219;SDS011;4151;51.110;7.020;2023-07-31T12:33:42;3.37;;;1.50;;
8219;SDS011;4151;51.110;7.020;2023-07-31T12:36:10;4.00;;;1.60;;
8219;SDS011;4151;51.110;7.020;2023-07-31T12:38:37;6.20;;;2.20;;
8219;SDS011;4151;51.110;7.020;2023-07-31T12:41:03;2.77;;;2.37;;
8219;SDS011;4151;51.110;7.020;2023-07-31T12:43:29;7.00;;;2.17;;
8219;SDS011;4151;51.110;7.020;2023-07-31T12:45:55;3.23;;;1.83;;
8219;SDS011;4151;51.110;7.020;2023-07-31T12:48:23;6.00;;;2.30;;
8219;SDS011;4151;51.110;7.020;2023-07-31T12:50:49;3.17;;;2.40;;
8219;SDS011;4151;51.110;7.020;2023-07-31T12:53:15;3.83;;;2.30;;
8219;SDS011;4151;51.110;7.020;2023-07-31T12:55:41;3.90;;;2.47;;
8219;SDS011;4151;51.110;7.020;2023-07-31T12:58:07;3.07;;;2.27;;
8219;SDS011;4151;51.110;7.020;2023-07-31T13:00:32;4.50;;;2.40;;
8219;SDS011;4151;51.110;7.020;2023-07-31T13:02:58;10.40;;;2.53;;
8219;SDS011;4151;51.110;7.020;2023-07-31T13:05:25;4.03;;;2.40;;
8219;SDS011;4151;51.110;7.020;2023-07-31T13:07:51;6.53;;;2.77;;
8219;SDS011;4151;51.110;7.020;2023-07-31T13:10:16;3.40;;;2.13;;
8219;SDS011;4151;51.110;7.020;2023-07-31T13:12:42;6.27;;;2.67;;
8219;SDS011;4151;51.110;7.020;2023-07-31T13:15:08;4.47;;;3.00;;
8219;SDS011;4151;51.110;7.020;2023-07-31T13:17:35;4.20;;;2.77;;
8219;SDS011;4151;51.110;7.020;2023-07-31T13:20:01;4.73;;;2.67;;
8219;SDS011;4151;51.110;7.020;2023-07-31T13:22:28;4.13;;;2.77;;
8219;SDS011;4151;51.110;7.020;2023-07-31T13:24:54;4.70;;;2.80;;
8219;SDS011;4151;51.110;7.020;2023-07-31T13:27:19;4.83;;;2.83;;
8219;SDS011;4151;51.110;7.020;2023-07-31T13:29:47;3.97;;;2.43;;
8219;SDS011;4151;51.110;7.020;2023-07-31T13:32:16;4.13;;;2.80;;
8219;SDS011;4151;51.110;7.020;2023-07-31T13:34:43;5.00;;;2.47;;
8219;SDS011;4151;51.110;7.020;2023-07-31T13:37:09;8.37;;;2.77;;
8219;SDS011;4151;51.110;7.020;2023-07-31T13:39:34;3.67;;;2.77;;
8219;SDS011;4151;51.110;7.020;2023-07-31T13:42:00;4.07;;;2.60;;
8219;SDS011;4151;51.110;7.020;2023-07-31T13:44:27;3.73;;;2.53;;
8219;SDS011;4151;51.110;7.020;2023-07-31T13:46:52;6.10;;;2.80;;
8219;SDS011;4151;51.110;7.020;2023-07-31T13:49:18;5.70;;;2.30;;
8219;SDS011;4151;51.110;7.020;2023-07-31T13:51:44;2.83;;;2.00;;
8219;SDS011;4151;51.110;7.020;2023-07-31T13:54:09;30.77;;;20.27;;
8219;SDS011;4151;51.110;7.020;2023-07-31T13:56:36;23.10;;;16.03;;
8219;SDS011;4151;51.110;7.020;2023-07-31T13:59:02;19.47;;;12.60;;
8219;SDS011;4151;51.110;7.020;2023-07-31T14:01:28;3.17;;;2.50;;
8219;SDS011;4151;51.110;7.020;2023-07-31T14:03:53;4.53;;;2.80;;
8219;SDS011;4151;51.110;7.020;2023-07-31T14:06:19;4.20;;;2.47;;
8219;SDS011;4151;51.110;7.020;2023-07-31T14:08:45;4.83;;;2.77;;
8219;SDS011;4151;51.110;7.020;2023-07-31T14:11:10;6.97;;;2.37;;
8219;SDS011;4151;51.110;7.020;2023-07-31T14:13:36;3.33;;;2.10;;
8219;SDS011;4151;51.110;7.020;2023-07-31T14:16:01;2.50;;;2.00;;
8219;SDS011;4151;51.110;7.020;2023-07-31T14:18:27;6.17;;;2.73;;
8219;SDS011;4151;51.110;7.020;2023-07-31T14:20:53;3.50;;;2.70;;
8219;SDS011;4151;51.110;7.020;2023-07-31T14:23:18;4.87;;;3.07;;
8219;SDS011;4151;51.110;7.020;2023-07-31T14:25:45;6.10;;;2.40;;
8219;SDS011;4151;51.110;7.020;2023-07-31T14:28:11;5.50;;;2.50;;
8219;SDS011;4151;51.110;7.020;2023-07-31T14:30:36;4.77;;;2.67;;
8219;SDS011;4151;51.110;7.020;2023-07-31T14:33:02;3.70;;;2.10;;
8219;SDS011;4151;51.110;7.020;2023-07-31T14:35:28;3.93;;;2.40;;
8219;SDS011;4151;51.110;7.020;2023-07-31T14:37:53;3.93;;;2.53;;
8219;SDS011;4151;51.110;7.020;2023-07-31T14:40:19;3.40;;;2.27;;
8219;SDS011;4151;51.110;7.020;2023-07-31T14:42:45;3.33;;;2.50;;
8219;SDS011;4151;51.110;7.020;2023-07-31T14:45:10;3.47;;;2.20;;
8219;SDS011;4151;51.110;7.020;2023-07-31T14:47:36;3.63;;;2.40;;
8219;SDS011;4151;51.110;7.020;2023-07-31T14:50:02;3.37;;;2.63;;
8219;SDS011;4151;51.110;7.020;2023-07-31T14:52:28;5.70;;;3.13;;
8219;SDS011;4151;51.110;7.020;2023-07-31T14:54:54;3.93;;;2.77;;
8219;SDS011;4151;51.110;7.020;2023-07-31T14:57:19;5.00;;;2.50;;
8219;SDS011;4151;51.110;7.020;2023-07-31T14:59:45;4.50;;;2.37;;
8219;SDS011;4151;51.110;7.020;2023-07-31T15:02:14;3.53;;;2.90;;
8219;SDS011;4151;51.110;7.020;2023-07-31T15:04:40;3.83;;;1.90;;
8219;SDS011;4151;51.110;7.020;2023-07-31T15:07:05;3.53;;;2.50;;
8219;SDS011;4151;51.110;7.020;2023-07-31T15:09:31;3.47;;;2.57;;
8219;SDS011;4151;51.110;7.020;2023-07-31T15:11:56;5.10;;;2.70;;
8219;SDS011;4151;51.110;7.020;2023-07-31T15:14:23;4.77;;;2.77;;